sensor_id;sensor_type;location;lat;lon;timestamp;temperature;humidity
51579;DHT22;47998;53.242;6.386;2022-09-01T00:01:39;13.80;99.90
51579;DHT22;47998;53.242;6.386;2022-09-01T00:04:07;13.70;99.90
51579;DHT22;47998;53.242;6.386;2022-09-01T00:06:35;13.80;99.90
51579;DHT22;47998;53.242;6.386;2022-09-01T00:09:07;13.70;73.40
51579;DHT22;47998;53.242;6.386;2022-09-01T00:11:36;13.80;49.50
51579;DHT22;47998;53.242;6.386;2022-09-01T00:14:03;13.70;1.00
51579;DHT22;47998;53.242;6.386;2022-09-01T00:16:31;13.70;1.00
51579;DHT22;47998;53.242;6.386;2022-09-01T00:18:58;13.70;1.00
51579;DHT22;47998;53.242;6.386;2022-09-01T00:21:28;13.70;1.00
51579;DHT22;47998;53.242;6.386;2022-09-01T00:24:00;13.70;1.00
51579;DHT22;47998;53.242;6.386;2022-09-01T00:26:28;13.70;1.00
51579;DHT22;47998;53.242;6.386;2022-09-01T00:28:56;13.70;1.00
51579;DHT22;47998;53.242;6.386;2022-09-01T00:31:23;13.70;1.00
51579;DHT22;47998;53.242;6.386;2022-09-01T00:33:51;13.60;1.00
51579;DHT22;47998;53.242;6.386;2022-09-01T00:36:18;13.60;1.00
51579;DHT22;47998;53.242;6.386;2022-09-01T00:38:44;13.60;1.00
51579;DHT22;47998;53.242;6.386;2022-09-01T00:41:11;13.60;1.00
51579;DHT22;47998;53.242;6.386;2022-09-01T00:43:47;13.50;1.00
51579;DHT22;47998;53.242;6.386;2022-09-01T00:46:28;13.50;1.00
51579;DHT22;47998;53.242;6.386;2022-09-01T00:49:07;13.50;1.00
51579;DHT22;47998;53.242;6.386;2022-09-01T00:51:35;13.40;1.00
51579;DHT22;47998;53.242;6.386;2022-09-01T00:54:11;13.50;1.00
51579;DHT22;47998;53.242;6.386;2022-09-01T00:56:39;13.40;1.00
51579;DHT22;47998;53.242;6.386;2022-09-01T00:59:07;13.40;1.00
51579;DHT22;47998;53.242;6.386;2022-09-01T01:01:36;13.40;1.00
51579;DHT22;47998;53.242;6.386;2022-09-01T01:04:04;13.40;1.00
51579;DHT22;47998;53.242;6.386;2022-09-01T01:06:31;13.40;1.00
51579;DHT22;47998;53.242;6.386;2022-09-01T01:08:59;13.40;1.00
51579;DHT22;47998;53.242;6.386;2022-09-01T01:11:28;13.40;1.00
51579;DHT22;47998;53.242;6.386;2022-09-01T01:14:03;13.50;1.00
51579;DHT22;47998;53.242;6.386;2022-09-01T01:16:47;13.40;1.00
51579;DHT22;47998;53.242;6.386;2022-09-01T01:25:45;13.50;1.00
51579;DHT22;47998;53.242;6.386;2022-09-01T01:28:26;13.60;1.00
51579;DHT22;47998;53.242;6.386;2022-09-01T01:31:03;13.50;1.00
51579;DHT22;47998;53.242;6.386;2022-09-01T01:33:46;13.60;1.00
51579;DHT22;47998;53.242;6.386;2022-09-01T01:36:22;13.60;1.00
51579;DHT22;47998;53.242;6.386;2022-09-01T01:38:51;13.60;1.00
51579;DHT22;47998;53.242;6.386;2022-09-01T01:41:18;13.60;1.00
51579;DHT22;47998;53.242;6.386;2022-09-01T01:43:44;13.70;1.00
51579;DHT22;47998;53.242;6.386;2022-09-01T01:46:11;13.60;1.00
51579;DHT22;47998;53.242;6.386;2022-09-01T01:48:41;13.70;1.00
51579;DHT22;47998;53.242;6.386;2022-09-01T01:51:08;13.70;1.00
51579;DHT22;47998;53.242;6.386;2022-09-01T01:53:35;13.70;1.00
51579;DHT22;47998;53.242;6.386;2022-09-01T01:56:01;13.70;1.00
51579;DHT22;47998;53.242;6.386;2022-09-01T01:58:27;13.80;1.00
51579;DHT22;47998;53.242;6.386;2022-09-01T02:00:54;13.80;1.00
51579;DHT22;47998;53.242;6.386;2022-09-01T02:03:28;13.80;1.00
51579;DHT22;47998;53.242;6.386;2022-09-01T02:05:59;13.90;1.00
51579;DHT22;47998;53.242;6.386;2022-09-01T02:08:33;13.90;1.00
51579;DHT22;47998;53.242;6.386;2022-09-01T02:11:02;13.80;1.00
51579;DHT22;47998;53.242;6.386;2022-09-01T02:13:29;13.90;1.00
51579;DHT22;47998;53.242;6.386;2022-09-01T02:16:01;13.80;99.90
51579;DHT22;47998;53.242;6.386;2022-09-01T02:18:33;13.90;99.90
51579;DHT22;47998;53.242;6.386;2022-09-01T02:21:01;13.90;99.90
51579;DHT22;47998;53.242;6.386;2022-09-01T02:23:27;14.00;99.90
51579;DHT22;47998;53.242;6.386;2022-09-01T02:25:56;13.90;99.90
51579;DHT22;47998;53.242;6.386;2022-09-01T02:28:25;14.00;99.90
51579;DHT22;47998;53.242;6.386;2022-09-01T02:30:58;14.00;99.90
51579;DHT22;47998;53.242;6.386;2022-09-01T02:33:25;14.00;99.90
51579;DHT22;47998;53.242;6.386;2022-09-01T02:35:56;14.00;99.90
51579;DHT22;47998;53.242;6.386;2022-09-01T02:38:25;14.00;99.90
51579;DHT22;47998;53.242;6.386;2022-09-01T02:40:54;14.00;99.90
51579;DHT22;47998;53.242;6.386;2022-09-01T02:43:21;14.00;99.90
51579;DHT22;47998;53.242;6.386;2022-09-01T02:45:50;13.90;99.90
51579;DHT22;47998;53.242;6.386;2022-09-01T02:48:20;14.00;99.90
51579;DHT22;47998;53.242;6.386;2022-09-01T02:50:51;14.00;99.90
51579;DHT22;47998;53.242;6.386;2022-09-01T02:53:18;14.00;99.90
51579;DHT22;47998;53.242;6.386;2022-09-01T02:55:45;13.90;99.90
51579;DHT22;47998;53.242;6.386;2022-09-01T02:58:10;14.00;99.90
51579;DHT22;47998;53.242;6.386;2022-09-01T03:00:45;13.90;99.90
51579;DHT22;47998;53.242;6.386;2022-09-01T03:03:12;13.90;99.90
51579;DHT22;47998;53.242;6.386;2022-09-01T03:05:38;13.80;99.90
51579;DHT22;47998;53.242;6.386;2022-09-01T03:08:07;13.80;99.90
51579;DHT22;47998;53.242;6.386;2022-09-01T03:10:37;13.80;99.90
51579;DHT22;47998;53.242;6.386;2022-09-01T03:13:11;13.80;99.90
51579;DHT22;47998;53.242;6.386;2022-09-01T03:15:38;13.80;99.90
51579;DHT22;47998;53.242;6.386;2022-09-01T03:18:06;13.80;99.90
51579;DHT22;47998;53.242;6.386;2022-09-01T03:20:34;13.70;99.90
51579;DHT22;47998;53.242;6.386;2022-09-01T03:23:10;13.60;99.90
51579;DHT22;47998;53.242;6.386;2022-09-01T03:25:38;13.70;99.90
51579;DHT22;47998;53.242;6.386;2022-09-01T03:28:04;13.70;99.90
51579;DHT22;47998;53.242;6.386;2022-09-01T03:30:32;13.70;99.90
51579;DHT22;47998;53.242;6.386;2022-09-01T03:33:08;13.70;99.90
51579;DHT22;47998;53.242;6.386;2022-09-01T03:35:34;13.70;99.90
51579;DHT22;47998;53.242;6.386;2022-09-01T03:38:05;13.70;99.90
51579;DHT22;47998;53.242;6.386;2022-09-01T03:40:33;13.60;99.90
51579;DHT22;47998;53.242;6.386;2022-09-01T03:43:03;13.70;99.90
51579;DHT22;47998;53.242;6.386;2022-09-01T03:45:30;13.60;99.90
51579;DHT22;47998;53.242;6.386;2022-09-01T03:47:59;13.70;99.90
51579;DHT22;47998;53.242;6.386;2022-09-01T03:50:26;13.60;99.90
51579;DHT22;47998;53.242;6.386;2022-09-01T03:52:55;13.60;99.90
51579;DHT22;47998;53.242;6.386;2022-09-01T03:55:25;13.60;99.90
51579;DHT22;47998;53.242;6.386;2022-09-01T03:57:59;13.60;99.90
51579;DHT22;47998;53.242;6.386;2022-09-01T04:00:27;13.50;99.90
51579;DHT22;47998;53.242;6.386;2022-09-01T04:02:56;13.40;99.90
51579;DHT22;47998;53.242;6.386;2022-09-01T04:05:26;13.40;99.90
51579;DHT22;47998;53.242;6.386;2022-09-01T04:08:04;13.30;99.90
51579;DHT22;47998;53.242;6.386;2022-09-01T04:10:34;13.20;99.90
51579;DHT22;47998;53.242;6.386;2022-09-01T04:13:02;13.10;99.90
51579;DHT22;47998;53.242;6.386;2022-09-01T04:15:29;13.10;99.90
51579;DHT22;47998;53.242;6.386;2022-09-01T04:17:57;13.10;1.00
51579;DHT22;47998;53.242;6.386;2022-09-01T04:20:39;12.90;1.00
51579;DHT22;47998;53.242;6.386;2022-09-01T04:23:24;12.90;1.00
51579;DHT22;47998;53.242;6.386;2022-09-01T04:26:10;12.90;1.00
51579;DHT22;47998;53.242;6.386;2022-09-01T04:28:43;12.80;1.00
51579;DHT22;47998;53.242;6.386;2022-09-01T04:31:13;12.70;1.00
51579;DHT22;47998;53.242;6.386;2022-09-01T04:33:51;12.60;1.00
51579;DHT22;47998;53.242;6.386;2022-09-01T04:36:25;12.50;1.00
51579;DHT22;47998;53.242;6.386;2022-09-01T04:38:56;12.50;1.00
51579;DHT22;47998;53.242;6.386;2022-09-01T04:41:26;12.50;1.00
51579;DHT22;47998;53.242;6.386;2022-09-01T04:43:56;12.50;1.00
51579;DHT22;47998;53.242;6.386;2022-09-01T04:46:25;12.50;1.00
51579;DHT22;47998;53.242;6.386;2022-09-01T04:48:59;12.40;7.10
51579;DHT22;47998;53.242;6.386;2022-09-01T04:51:25;12.30;68.30
51579;DHT22;47998;53.242;6.386;2022-09-01T04:53:54;12.40;56.70
51579;DHT22;47998;53.242;6.386;2022-09-01T04:56:22;12.30;81.40
51579;DHT22;47998;53.242;6.386;2022-09-01T04:59:02;12.30;99.90
51579;DHT22;47998;53.242;6.386;2022-09-01T05:01:35;12.20;99.90
51579;DHT22;47998;53.242;6.386;2022-09-01T05:04:09;12.30;99.90
51579;DHT22;47998;53.242;6.386;2022-09-01T05:06:40;12.30;99.90
51579;DHT22;47998;53.242;6.386;2022-09-01T05:09:10;12.30;99.90
51579;DHT22;47998;53.242;6.386;2022-09-01T05:11:39;12.20;99.90
51579;DHT22;47998;53.242;6.386;2022-09-01T05:14:07;12.30;99.90
51579;DHT22;47998;53.242;6.386;2022-09-01T05:16:33;12.30;99.90
51579;DHT22;47998;53.242;6.386;2022-09-01T05:19:00;12.30;99.90
51579;DHT22;47998;53.242;6.386;2022-09-01T05:21:26;12.30;99.90
51579;DHT22;47998;53.242;6.386;2022-09-01T05:23:56;12.30;99.90
51579;DHT22;47998;53.242;6.386;2022-09-01T05:26:27;12.30;99.90
51579;DHT22;47998;53.242;6.386;2022-09-01T05:28:59;12.30;99.90
51579;DHT22;47998;53.242;6.386;2022-09-01T05:31:27;12.40;99.90
51579;DHT22;47998;53.242;6.386;2022-09-01T05:33:54;12.50;99.90
51579;DHT22;47998;53.242;6.386;2022-09-01T05:36:22;12.60;99.90
51579;DHT22;47998;53.242;6.386;2022-09-01T05:38:49;12.60;99.90
51579;DHT22;47998;53.242;6.386;2022-09-01T05:41:18;12.70;99.90
51579;DHT22;47998;53.242;6.386;2022-09-01T05:43:46;12.70;99.90
51579;DHT22;47998;53.242;6.386;2022-09-01T05:46:22;12.90;99.90
51579;DHT22;47998;53.242;6.386;2022-09-01T05:48:52;12.90;99.90
51579;DHT22;47998;53.242;6.386;2022-09-01T05:51:23;13.10;99.90
51579;DHT22;47998;53.242;6.386;2022-09-01T05:53:51;13.10;99.90
51579;DHT22;47998;53.242;6.386;2022-09-01T05:56:19;13.20;1.00
51579;DHT22;47998;53.242;6.386;2022-09-01T05:58:46;13.30;99.90
51579;DHT22;47998;53.242;6.386;2022-09-01T06:01:20;13.40;99.90
51579;DHT22;47998;53.242;6.386;2022-09-01T06:03:48;13.50;99.90
51579;DHT22;47998;53.242;6.386;2022-09-01T06:06:23;13.60;99.90
51579;DHT22;47998;53.242;6.386;2022-09-01T06:08:52;13.60;99.90
51579;DHT22;47998;53.242;6.386;2022-09-01T06:11:24;13.80;99.90
51579;DHT22;47998;53.242;6.386;2022-09-01T06:13:53;13.90;99.90
51579;DHT22;47998;53.242;6.386;2022-09-01T06:16:23;14.00;99.90
51579;DHT22;47998;53.242;6.386;2022-09-01T06:18:50;14.10;99.90
51579;DHT22;47998;53.242;6.386;2022-09-01T06:21:22;14.20;99.90
51579;DHT22;47998;53.242;6.386;2022-09-01T06:23:51;14.30;99.90
51579;DHT22;47998;53.242;6.386;2022-09-01T06:26:28;14.50;99.90
51579;DHT22;47998;53.242;6.386;2022-09-01T06:29:06;14.60;99.90
51579;DHT22;47998;53.242;6.386;2022-09-01T06:31:36;14.80;99.90
51579;DHT22;47998;53.242;6.386;2022-09-01T06:34:06;14.90;44.40
51579;DHT22;47998;53.242;6.386;2022-09-01T06:36:35;15.00;20.30
51579;DHT22;47998;53.242;6.386;2022-09-01T06:39:04;15.10;12.60
51579;DHT22;47998;53.242;6.386;2022-09-01T06:41:33;15.20;1.00
51579;DHT22;47998;53.242;6.386;2022-09-01T06:43:59;15.30;1.00
51579;DHT22;47998;53.242;6.386;2022-09-01T06:46:26;15.30;1.00
51579;DHT22;47998;53.242;6.386;2022-09-01T06:48:54;15.40;1.00
51579;DHT22;47998;53.242;6.386;2022-09-01T06:51:25;15.40;1.00
51579;DHT22;47998;53.242;6.386;2022-09-01T06:53:53;15.50;1.00
51579;DHT22;47998;53.242;6.386;2022-09-01T06:56:27;15.60;1.00
51579;DHT22;47998;53.242;6.386;2022-09-01T06:58:56;15.70;1.00
51579;DHT22;47998;53.242;6.386;2022-09-01T07:01:23;16.00;1.00
51579;DHT22;47998;53.242;6.386;2022-09-01T07:04:01;16.30;1.00
51579;DHT22;47998;53.242;6.386;2022-09-01T07:06:29;16.40;99.90
51579;DHT22;47998;53.242;6.386;2022-09-01T07:09:08;16.50;99.90
51579;DHT22;47998;53.242;6.386;2022-09-01T07:11:44;16.60;99.90
51579;DHT22;47998;53.242;6.386;2022-09-01T07:14:12;16.60;91.30
51579;DHT22;47998;53.242;6.386;2022-09-01T07:16:41;16.50;38.70
51579;DHT22;47998;53.242;6.386;2022-09-01T07:19:09;16.50;7.90
51579;DHT22;47998;53.242;6.386;2022-09-01T07:21:40;16.40;58.30
51579;DHT22;47998;53.242;6.386;2022-09-01T07:24:06;16.30;99.90
51579;DHT22;47998;53.242;6.386;2022-09-01T07:26:32;16.50;99.90
51579;DHT22;47998;53.242;6.386;2022-09-01T07:29:04;16.70;99.90
51579;DHT22;47998;53.242;6.386;2022-09-01T07:31:38;17.00;99.90
51579;DHT22;47998;53.242;6.386;2022-09-01T07:34:09;17.30;93.90
51579;DHT22;47998;53.242;6.386;2022-09-01T07:36:40;17.60;5.60
51579;DHT22;47998;53.242;6.386;2022-09-01T07:39:13;17.70;1.00
51579;DHT22;47998;53.242;6.386;2022-09-01T07:41:41;17.70;1.00
51579;DHT22;47998;53.242;6.386;2022-09-01T07:44:09;17.70;1.00
51579;DHT22;47998;53.242;6.386;2022-09-01T07:46:38;17.70;1.00
51579;DHT22;47998;53.242;6.386;2022-09-01T07:49:09;17.70;1.00
51579;DHT22;47998;53.242;6.386;2022-09-01T07:51:42;17.70;1.00
51579;DHT22;47998;53.242;6.386;2022-09-01T07:54:11;17.80;1.00
51579;DHT22;47998;53.242;6.386;2022-09-01T07:56:38;18.00;1.00
51579;DHT22;47998;53.242;6.386;2022-09-01T07:59:04;18.10;99.90
51579;DHT22;47998;53.242;6.386;2022-09-01T08:01:32;18.30;99.90
51579;DHT22;47998;53.242;6.386;2022-09-01T08:03:59;18.50;99.90
51579;DHT22;47998;53.242;6.386;2022-09-01T08:06:28;18.70;99.90
51579;DHT22;47998;53.242;6.386;2022-09-01T08:08:57;18.90;99.90
51579;DHT22;47998;53.242;6.386;2022-09-01T08:11:26;19.00;99.90
51579;DHT22;47998;53.242;6.386;2022-09-01T08:13:54;19.20;99.90
51579;DHT22;47998;53.242;6.386;2022-09-01T08:16:27;19.30;99.90
51579;DHT22;47998;53.242;6.386;2022-09-01T08:18:53;19.50;90.50
51579;DHT22;47998;53.242;6.386;2022-09-01T08:21:20;19.70;99.90
51579;DHT22;47998;53.242;6.386;2022-09-01T08:23:50;20.00;99.90
51579;DHT22;47998;53.242;6.386;2022-09-01T08:26:18;20.30;6.60
51579;DHT22;47998;53.242;6.386;2022-09-01T08:28:47;20.50;1.00
51579;DHT22;47998;53.242;6.386;2022-09-01T08:31:18;20.60;99.90
51579;DHT22;47998;53.242;6.386;2022-09-01T08:33:52;20.50;99.90
51579;DHT22;47998;53.242;6.386;2022-09-01T08:36:25;20.40;99.90
51579;DHT22;47998;53.242;6.386;2022-09-01T08:38:56;20.40;99.90
51579;DHT22;47998;53.242;6.386;2022-09-01T08:41:29;20.40;99.90
51579;DHT22;47998;53.242;6.386;2022-09-01T08:46:37;20.20;99.90
51579;DHT22;47998;53.242;6.386;2022-09-01T08:49:20;20.00;99.90
51579;DHT22;47998;53.242;6.386;2022-09-01T08:54:50;19.70;1.00
51579;DHT22;47998;53.242;6.386;2022-09-01T08:57:39;19.60;1.00
51579;DHT22;47998;53.242;6.386;2022-09-01T09:00:11;19.90;1.00
51579;DHT22;47998;53.242;6.386;2022-09-01T09:06:18;20.60;99.90
51579;DHT22;47998;53.242;6.386;2022-09-01T09:08:53;21.30;99.90
51579;DHT22;47998;53.242;6.386;2022-09-01T09:11:59;22.10;99.90
51579;DHT22;47998;53.242;6.386;2022-09-01T09:16:58;23.90;99.90
51579;DHT22;47998;53.242;6.386;2022-09-01T09:19:29;24.50;1.00
51579;DHT22;47998;53.242;6.386;2022-09-01T09:21:58;24.80;1.00
51579;DHT22;47998;53.242;6.386;2022-09-01T09:24:36;25.10;99.90
51579;DHT22;47998;53.242;6.386;2022-09-01T09:27:23;25.40;99.90
51579;DHT22;47998;53.242;6.386;2022-09-01T09:29:52;25.60;99.90
51579;DHT22;47998;53.242;6.386;2022-09-01T09:32:24;25.50;99.90
51579;DHT22;47998;53.242;6.386;2022-09-01T09:40:56;26.70;99.90
51579;DHT22;47998;53.242;6.386;2022-09-01T09:43:31;26.70;99.90
51579;DHT22;47998;53.242;6.386;2022-09-01T09:49:05;26.80;99.90
51579;DHT22;47998;53.242;6.386;2022-09-01T09:51:31;26.60;99.90
51579;DHT22;47998;53.242;6.386;2022-09-01T09:54:17;26.60;99.90
51579;DHT22;47998;53.242;6.386;2022-09-01T09:56:46;26.60;99.90
51579;DHT22;47998;53.242;6.386;2022-09-01T09:59:33;26.50;99.90
51579;DHT22;47998;53.242;6.386;2022-09-01T10:05:01;26.50;99.90
51579;DHT22;47998;53.242;6.386;2022-09-01T10:07:45;26.80;99.90
51579;DHT22;47998;53.242;6.386;2022-09-01T10:13:18;27.40;99.90
51579;DHT22;47998;53.242;6.386;2022-09-01T10:15:53;27.50;99.90
51579;DHT22;47998;53.242;6.386;2022-09-01T10:18:30;27.40;99.90
51579;DHT22;47998;53.242;6.386;2022-09-01T10:21:07;27.00;99.90
51579;DHT22;47998;53.242;6.386;2022-09-01T10:23:40;26.80;99.90
51579;DHT22;47998;53.242;6.386;2022-09-01T10:26:19;26.80;99.90
51579;DHT22;47998;53.242;6.386;2022-09-01T10:29:14;27.10;99.90
51579;DHT22;47998;53.242;6.386;2022-09-01T10:31:41;27.00;99.90
51579;DHT22;47998;53.242;6.386;2022-09-01T10:34:10;26.90;99.90
51579;DHT22;47998;53.242;6.386;2022-09-01T10:36:41;26.10;99.90
51579;DHT22;47998;53.242;6.386;2022-09-01T10:39:17;25.80;99.90
51579;DHT22;47998;53.242;6.386;2022-09-01T10:41:47;25.30;99.90
51579;DHT22;47998;53.242;6.386;2022-09-01T10:44:35;24.70;99.90
51579;DHT22;47998;53.242;6.386;2022-09-01T10:47:31;24.30;99.90
51579;DHT22;47998;53.242;6.386;2022-09-01T10:50:48;24.70;99.90
51579;DHT22;47998;53.242;6.386;2022-09-01T10:52:59;24.70;99.90
51579;DHT22;47998;53.242;6.386;2022-09-01T10:55:33;25.00;99.90
51579;DHT22;47998;53.242;6.386;2022-09-01T11:08:43;27.30;1.00
51579;DHT22;47998;53.242;6.386;2022-09-01T11:11:38;27.00;1.00
51579;DHT22;47998;53.242;6.386;2022-09-01T11:14:23;26.30;1.00
51579;DHT22;47998;53.242;6.386;2022-09-01T11:27:09;29.90;1.00
51579;DHT22;47998;53.242;6.386;2022-09-01T11:29:56;30.50;1.00
51579;DHT22;47998;53.242;6.386;2022-09-01T11:32:36;29.80;13.80
51579;DHT22;47998;53.242;6.386;2022-09-01T11:35:16;29.00;8.60
51579;DHT22;47998;53.242;6.386;2022-09-01T11:37:50;28.40;11.90
51579;DHT22;47998;53.242;6.386;2022-09-01T11:40:30;28.70;11.00
51579;DHT22;47998;53.242;6.386;2022-09-01T11:43:06;28.90;36.80
51579;DHT22;47998;53.242;6.386;2022-09-01T11:45:40;28.50;29.30
51579;DHT22;47998;53.242;6.386;2022-09-01T11:48:10;28.60;30.70
51579;DHT22;47998;53.242;6.386;2022-09-01T11:50:40;28.30;52.50
51579;DHT22;47998;53.242;6.386;2022-09-01T11:53:12;27.30;43.70
51579;DHT22;47998;53.242;6.386;2022-09-01T11:55:48;26.30;23.70
51579;DHT22;47998;53.242;6.386;2022-09-01T11:58:30;25.40;1.00
51579;DHT22;47998;53.242;6.386;2022-09-01T12:01:18;24.50;4.90
51579;DHT22;47998;53.242;6.386;2022-09-01T12:03:47;24.60;1.30
51579;DHT22;47998;53.242;6.386;2022-09-01T12:06:27;25.50;29.60
51579;DHT22;47998;53.242;6.386;2022-09-01T12:08:58;26.30;45.70
51579;DHT22;47998;53.242;6.386;2022-09-01T12:11:35;26.90;48.30
51579;DHT22;47998;53.242;6.386;2022-09-01T12:14:06;27.40;79.80
51579;DHT22;47998;53.242;6.386;2022-09-01T12:16:33;28.00;96.00
51579;DHT22;47998;53.242;6.386;2022-09-01T12:19:04;27.90;98.00
51579;DHT22;47998;53.242;6.386;2022-09-01T12:21:34;28.30;99.90
51579;DHT22;47998;53.242;6.386;2022-09-01T12:24:17;28.50;99.90
51579;DHT22;47998;53.242;6.386;2022-09-01T12:26:44;28.80;99.90
51579;DHT22;47998;53.242;6.386;2022-09-01T12:29:12;28.40;99.90
51579;DHT22;47998;53.242;6.386;2022-09-01T12:31:45;27.70;99.90
51579;DHT22;47998;53.242;6.386;2022-09-01T12:39:45;28.20;99.90
51579;DHT22;47998;53.242;6.386;2022-09-01T12:42:31;27.80;99.90
51579;DHT22;47998;53.242;6.386;2022-09-01T12:44:58;27.50;99.90
51579;DHT22;47998;53.242;6.386;2022-09-01T12:52:45;27.20;99.90
51579;DHT22;47998;53.242;6.386;2022-09-01T12:55:32;27.90;99.90
51579;DHT22;47998;53.242;6.386;2022-09-01T12:58:02;28.40;99.90
51579;DHT22;47998;53.242;6.386;2022-09-01T13:00:29;27.80;99.90
51579;DHT22;47998;53.242;6.386;2022-09-01T13:05:31;26.60;99.90
51579;DHT22;47998;53.242;6.386;2022-09-01T13:08:03;26.30;99.90
51579;DHT22;47998;53.242;6.386;2022-09-01T13:10:33;26.70;99.90
51579;DHT22;47998;53.242;6.386;2022-09-01T13:13:00;27.40;99.90
51579;DHT22;47998;53.242;6.386;2022-09-01T13:15:27;28.30;99.90
51579;DHT22;47998;53.242;6.386;2022-09-01T13:17:52;28.80;99.90
51579;DHT22;47998;53.242;6.386;2022-09-01T13:20:18;29.40;99.90
51579;DHT22;47998;53.242;6.386;2022-09-01T13:22:44;29.20;99.90
51579;DHT22;47998;53.242;6.386;2022-09-01T13:25:11;29.20;99.90
51579;DHT22;47998;53.242;6.386;2022-09-01T13:27:38;29.40;99.90
51579;DHT22;47998;53.242;6.386;2022-09-01T13:30:10;29.10;99.90
51579;DHT22;47998;53.242;6.386;2022-09-01T13:32:37;29.10;99.90
51579;DHT22;47998;53.242;6.386;2022-09-01T13:35:03;28.50;99.90
51579;DHT22;47998;53.242;6.386;2022-09-01T13:37:29;27.60;99.90
51579;DHT22;47998;53.242;6.386;2022-09-01T13:39:55;26.80;99.90
51579;DHT22;47998;53.242;6.386;2022-09-01T13:42:21;26.60;99.90
51579;DHT22;47998;53.242;6.386;2022-09-01T13:44:47;27.00;99.90
51579;DHT22;47998;53.242;6.386;2022-09-01T13:47:12;27.40;99.90
51579;DHT22;47998;53.242;6.386;2022-09-01T13:49:38;27.70;99.90
51579;DHT22;47998;53.242;6.386;2022-09-01T13:52:04;27.40;99.90
51579;DHT22;47998;53.242;6.386;2022-09-01T13:54:30;26.90;99.90
51579;DHT22;47998;53.242;6.386;2022-09-01T13:56:57;26.30;99.90
51579;DHT22;47998;53.242;6.386;2022-09-01T13:59:23;26.10;99.90
51579;DHT22;47998;53.242;6.386;2022-09-01T14:01:49;26.30;99.90
51579;DHT22;47998;53.242;6.386;2022-09-01T14:04:15;26.70;99.90
51579;DHT22;47998;53.242;6.386;2022-09-01T14:06:42;27.10;99.90
51579;DHT22;47998;53.242;6.386;2022-09-01T14:09:13;27.10;99.90
51579;DHT22;47998;53.242;6.386;2022-09-01T14:11:39;26.60;99.90
51579;DHT22;47998;53.242;6.386;2022-09-01T14:14:06;26.00;99.90
51579;DHT22;47998;53.242;6.386;2022-09-01T14:16:31;25.50;99.90
51579;DHT22;47998;53.242;6.386;2022-09-01T14:18:58;25.40;99.90
51579;DHT22;47998;53.242;6.386;2022-09-01T14:21:25;25.90;99.90
51579;DHT22;47998;53.242;6.386;2022-09-01T14:23:51;26.70;99.90
51579;DHT22;47998;53.242;6.386;2022-09-01T14:26:18;27.50;99.90
51579;DHT22;47998;53.242;6.386;2022-09-01T14:28:44;28.30;99.90
51579;DHT22;47998;53.242;6.386;2022-09-01T14:31:14;28.80;99.90
51579;DHT22;47998;53.242;6.386;2022-09-01T14:33:41;29.00;99.90
51579;DHT22;47998;53.242;6.386;2022-09-01T14:36:08;28.50;99.90
51579;DHT22;47998;53.242;6.386;2022-09-01T14:38:40;28.10;99.90
51579;DHT22;47998;53.242;6.386;2022-09-01T14:41:05;27.80;99.90
51579;DHT22;47998;53.242;6.386;2022-09-01T14:43:31;27.40;99.90
51579;DHT22;47998;53.242;6.386;2022-09-01T14:46:05;27.50;99.90
51579;DHT22;47998;53.242;6.386;2022-09-01T14:48:32;28.10;99.90
51579;DHT22;47998;53.242;6.386;2022-09-01T14:50:59;28.50;99.90
51579;DHT22;47998;53.242;6.386;2022-09-01T14:53:26;28.80;99.90
51579;DHT22;47998;53.242;6.386;2022-09-01T14:55:55;29.20;99.90
51579;DHT22;47998;53.242;6.386;2022-09-01T14:58:21;29.50;99.90
51579;DHT22;47998;53.242;6.386;2022-09-01T15:00:46;29.60;99.90
51579;DHT22;47998;53.242;6.386;2022-09-01T15:03:13;29.60;99.90
51579;DHT22;47998;53.242;6.386;2022-09-01T15:05:39;29.50;99.90
51579;DHT22;47998;53.242;6.386;2022-09-01T15:08:05;29.40;99.90
51579;DHT22;47998;53.242;6.386;2022-09-01T15:10:31;28.60;99.90
51579;DHT22;47998;53.242;6.386;2022-09-01T15:12:58;27.60;99.90
51579;DHT22;47998;53.242;6.386;2022-09-01T15:15:26;27.10;99.90
51579;DHT22;47998;53.242;6.386;2022-09-01T15:17:52;26.80;99.90
51579;DHT22;47998;53.242;6.386;2022-09-01T15:20:18;26.40;99.90
51579;DHT22;47998;53.242;6.386;2022-09-01T15:23:03;26.00;99.90
51579;DHT22;47998;53.242;6.386;2022-09-01T15:25:29;26.50;99.90
51579;DHT22;47998;53.242;6.386;2022-09-01T15:27:55;26.90;99.90
51579;DHT22;47998;53.242;6.386;2022-09-01T15:30:20;27.10;99.90
51579;DHT22;47998;53.242;6.386;2022-09-01T15:32:49;27.40;99.90
51579;DHT22;47998;53.242;6.386;2022-09-01T15:35:16;27.90;99.90
51579;DHT22;47998;53.242;6.386;2022-09-01T15:37:42;28.50;99.90
51579;DHT22;47998;53.242;6.386;2022-09-01T15:40:08;29.10;99.90
51579;DHT22;47998;53.242;6.386;2022-09-01T15:42:35;29.50;99.90
51579;DHT22;47998;53.242;6.386;2022-09-01T15:45:09;29.40;99.90
51579;DHT22;47998;53.242;6.386;2022-09-01T15:47:35;28.70;99.90
51579;DHT22;47998;53.242;6.386;2022-09-01T15:50:07;28.60;99.90
51579;DHT22;47998;53.242;6.386;2022-09-01T15:52:49;28.60;99.90
51579;DHT22;47998;53.242;6.386;2022-09-01T15:55:24;28.00;99.90
51579;DHT22;47998;53.242;6.386;2022-09-01T15:57:51;27.30;99.90
51579;DHT22;47998;53.242;6.386;2022-09-01T16:00:21;26.90;99.90
51579;DHT22;47998;53.242;6.386;2022-09-01T16:02:47;26.40;99.90
51579;DHT22;47998;53.242;6.386;2022-09-01T16:05:13;26.00;99.90
51579;DHT22;47998;53.242;6.386;2022-09-01T16:07:40;25.40;99.90
51579;DHT22;47998;53.242;6.386;2022-09-01T16:10:07;24.90;99.90
51579;DHT22;47998;53.242;6.386;2022-09-01T16:12:37;24.30;99.90
51579;DHT22;47998;53.242;6.386;2022-09-01T16:15:03;24.10;99.90
51579;DHT22;47998;53.242;6.386;2022-09-01T16:20:21;24.50;99.90
51579;DHT22;47998;53.242;6.386;2022-09-01T16:23:19;25.10;99.90
51579;DHT22;47998;53.242;6.386;2022-09-01T16:25:45;25.80;99.90
51579;DHT22;47998;53.242;6.386;2022-09-01T16:28:30;26.60;99.90
51579;DHT22;47998;53.242;6.386;2022-09-01T16:31:15;26.90;99.90
51579;DHT22;47998;53.242;6.386;2022-09-01T16:33:48;27.10;99.90
51579;DHT22;47998;53.242;6.386;2022-09-01T16:42:19;27.80;99.90
51579;DHT22;47998;53.242;6.386;2022-09-01T16:45:00;27.60;99.90
51579;DHT22;47998;53.242;6.386;2022-09-01T16:47:49;26.90;99.90
51579;DHT22;47998;53.242;6.386;2022-09-01T16:53:28;27.00;99.90
51579;DHT22;47998;53.242;6.386;2022-09-01T16:56:06;27.20;99.90
51579;DHT22;47998;53.242;6.386;2022-09-01T16:58:54;27.20;99.90
51579;DHT22;47998;53.242;6.386;2022-09-01T17:01:30;27.20;99.90
51579;DHT22;47998;53.242;6.386;2022-09-01T17:09:44;27.60;99.90
51579;DHT22;47998;53.242;6.386;2022-09-01T17:12:42;27.70;99.90
51579;DHT22;47998;53.242;6.386;2022-09-01T17:15:16;27.70;99.90
51579;DHT22;47998;53.242;6.386;2022-09-01T17:17:52;27.50;99.90
51579;DHT22;47998;53.242;6.386;2022-09-01T17:20:25;27.30;99.90
51579;DHT22;47998;53.242;6.386;2022-09-01T17:22:55;26.90;99.90
51579;DHT22;47998;53.242;6.386;2022-09-01T17:25:30;26.70;99.90